createdAt,value
2022-11-04T00:00:28.683Z,13.28
2022-11-04T00:02:59.119Z,13.39
2022-11-04T00:05:26.764Z,13.07
2022-11-04T00:08:11.995Z,13.01
2022-11-04T00:10:57.249Z,12.97
2022-11-04T00:13:24.897Z,12.40
2022-11-04T00:16:10.275Z,12.72
2022-11-04T00:18:39.260Z,12.89
2022-11-04T00:21:24.595Z,12.82
2022-11-04T00:24:09.898Z,13.23
2022-11-04T00:26:55.277Z,13.12
2022-11-04T00:29:23.202Z,12.89
2022-11-04T00:32:08.204Z,12.92
2022-11-04T00:34:37.228Z,13.09
2022-11-04T00:37:04.923Z,13.21
2022-11-04T00:39:32.540Z,12.76
2022-11-04T00:42:00.208Z,12.57
2022-11-04T00:44:28.092Z,12.98
2022-11-04T00:46:55.754Z,13.24
2022-11-04T00:49:23.362Z,13.06
2022-11-04T00:51:52.404Z,13.11
2022-11-04T00:54:20.068Z,12.64
2022-11-04T00:56:48.544Z,13.13
2022-11-04T00:59:16.349Z,12.75
2022-11-04T01:01:44.072Z,13.13
2022-11-04T01:04:11.828Z,12.96
2022-11-04T01:06:39.588Z,13.22
2022-11-04T01:09:09.932Z,13.28
2022-11-04T01:11:37.576Z,13.27
2022-11-04T01:14:05.763Z,13.13
2022-11-04T01:16:33.526Z,13.32
2022-11-04T01:19:01.596Z,12.99
2022-11-04T01:21:29.247Z,13.57
2022-11-04T01:23:57.224Z,13.28
2022-11-04T01:26:27.091Z,13.57
2022-11-04T01:28:56.046Z,13.11
2022-11-04T01:31:25.554Z,13.51
2022-11-04T01:33:54.118Z,13.44
2022-11-04T01:36:22.438Z,13.04
2022-11-04T01:38:50.560Z,12.91
2022-11-04T01:41:19.887Z,13.37
2022-11-04T01:43:51.663Z,13.05
2022-11-04T01:46:26.740Z,12.97
2022-11-04T01:48:55.270Z,12.86
2022-11-04T01:51:23.045Z,12.30
2022-11-04T01:53:52.462Z,12.85
2022-11-04T01:56:20.914Z,13.29
2022-11-04T01:58:53.300Z,12.88
2022-11-04T02:01:21.101Z,12.85
2022-11-04T02:03:52.959Z,12.89
2022-11-04T02:06:21.679Z,13.06
2022-11-04T02:08:50.108Z,13.23
2022-11-04T02:11:31.819Z,13.43
2022-11-04T02:14:01.672Z,13.36
2022-11-04T02:16:35.935Z,13.57
2022-11-04T02:19:08.797Z,13.67
2022-11-04T02:21:58.629Z,12.76
2022-11-04T02:25:01.944Z,13.42
2022-11-04T02:27:33.917Z,12.91
2022-11-04T02:30:11.391Z,12.92
2022-11-04T02:32:58.385Z,13.11
2022-11-04T02:35:31.849Z,12.89
2022-11-04T02:38:08.166Z,13.16
2022-11-04T02:40:41.395Z,13.17
2022-11-04T02:43:14.126Z,12.50
2022-11-04T02:45:46.337Z,12.75
2022-11-04T02:48:21.051Z,12.36
2022-11-04T02:50:51.894Z,12.88
2022-11-04T02:53:23.979Z,12.81
2022-11-04T02:55:54.835Z,12.57
2022-11-04T02:58:26.675Z,12.92
2022-11-04T03:00:56.874Z,12.55
2022-11-04T03:03:27.746Z,12.66
2022-11-04T03:05:56.948Z,12.96
2022-11-04T03:08:27.918Z,12.60
2022-11-04T03:10:58.418Z,12.27
2022-11-04T03:13:30.740Z,12.90
2022-11-04T03:16:01.240Z,12.93
2022-11-04T03:18:35.280Z,12.82
2022-11-04T03:21:04.341Z,12.57
2022-11-04T03:23:32.140Z,12.23
2022-11-04T03:26:08.267Z,12.16
2022-11-04T03:28:41.749Z,12.84
2022-11-04T03:31:16.161Z,12.34
2022-11-04T03:33:47.236Z,12.30
2022-11-04T03:36:14.994Z,12.54
2022-11-04T03:38:42.848Z,12.37
2022-11-04T03:41:13.157Z,11.93
2022-11-04T03:43:41.608Z,12.25
2022-11-04T03:46:10.861Z,12.24
2022-11-04T03:48:38.798Z,12.67
2022-11-04T03:51:06.814Z,12.13
2022-11-04T03:53:34.611Z,12.47
2022-11-04T03:56:13.596Z,11.89
2022-11-04T03:58:46.716Z,12.11
2022-11-04T04:01:26.591Z,11.96
2022-11-04T04:03:57.946Z,12.12
2022-11-04T04:06:28.384Z,11.56
2022-11-04T04:08:58.452Z,12.08
2022-11-04T04:11:30.959Z,12.00
2022-11-04T04:14:03.079Z,11.34
2022-11-04T04:16:35.100Z,11.53
2022-11-04T04:19:04.650Z,11.41
2022-11-04T04:21:35.546Z,11.40
2022-11-04T04:24:22.186Z,11.80
2022-11-04T04:27:09.160Z,11.79
2022-11-04T04:29:38.263Z,11.32
2022-11-04T04:32:08.098Z,11.69
2022-11-04T04:34:35.785Z,11.78
2022-11-04T04:37:05.212Z,11.73
2022-11-04T04:39:57.037Z,12.07
2022-11-04T04:42:42.375Z,11.55
2022-11-04T04:45:12.355Z,11.10
2022-11-04T04:47:44.574Z,12.03
2022-11-04T04:50:14.352Z,11.90
2022-11-04T04:52:44.265Z,11.87
2022-11-04T04:55:12.596Z,11.46
2022-11-04T04:57:40.413Z,11.66
2022-11-04T05:00:10.314Z,11.46
2022-11-04T05:02:38.024Z,11.58
2022-11-04T05:05:08.515Z,11.49
2022-11-04T05:07:36.161Z,11.39
2022-11-04T05:10:03.888Z,11.50
2022-11-04T05:12:52.054Z,11.28
2022-11-04T05:15:19.723Z,11.24
2022-11-04T05:17:47.400Z,11.43
2022-11-04T05:20:16.629Z,11.02
2022-11-04T05:22:44.255Z,10.92
2022-11-04T05:25:11.913Z,11.02
2022-11-04T05:27:39.589Z,11.21
2022-11-04T05:30:08.305Z,10.90
2022-11-04T05:32:35.980Z,11.09
2022-11-04T05:35:03.632Z,10.97
2022-11-04T05:37:32.636Z,10.86
2022-11-04T05:40:00.319Z,10.73
2022-11-04T05:42:29.440Z,10.72
2022-11-04T05:44:57.117Z,10.25
2022-11-04T05:47:24.754Z,10.43
2022-11-04T05:49:52.595Z,10.41
2022-11-04T05:52:20.251Z,10.45
2022-11-04T05:54:49.270Z,10.55
2022-11-04T05:57:16.919Z,10.50
2022-11-04T05:59:44.686Z,10.69
2022-11-04T06:02:12.863Z,10.88
2022-11-04T06:04:40.577Z,10.87
2022-11-04T06:07:08.264Z,11.10
2022-11-04T06:09:42.062Z,10.77
2022-11-04T06:12:12.446Z,10.59
2022-11-04T06:14:40.099Z,10.67
2022-11-04T06:17:07.867Z,10.66
2022-11-04T06:19:35.589Z,10.89
2022-11-04T06:22:03.934Z,10.95
2022-11-04T06:24:31.604Z,10.85
2022-11-04T06:26:59.217Z,11.02
2022-11-04T06:29:28.286Z,10.67
2022-11-04T06:31:55.903Z,10.62
2022-11-04T06:34:23.553Z,11.04
2022-11-04T06:36:51.512Z,11.05
2022-11-04T06:39:19.128Z,11.23
2022-11-04T06:41:50.507Z,10.84
2022-11-04T06:44:19.453Z,10.97
2022-11-04T06:46:48.601Z,11.58
2022-11-04T06:49:18.627Z,11.22
2022-11-04T06:51:46.348Z,11.35
2022-11-04T06:54:14.935Z,11.34
2022-11-04T06:56:42.590Z,11.14
2022-11-04T06:59:11.206Z,11.34
2022-11-04T07:01:38.891Z,11.34
2022-11-04T07:04:08.032Z,11.03
2022-11-04T07:06:38.416Z,11.46
2022-11-04T07:09:08.808Z,11.60
2022-11-04T07:11:36.462Z,11.65
2022-11-04T07:14:04.102Z,11.43
2022-11-04T07:16:31.884Z,11.69
2022-11-04T07:18:59.499Z,11.69
2022-11-04T07:21:28.542Z,11.86
2022-11-04T07:23:56.376Z,11.87
2022-11-04T07:26:24.181Z,11.35
2022-11-04T07:28:51.812Z,11.27
2022-11-04T07:31:19.574Z,11.08
2022-11-04T07:33:50.101Z,11.44
2022-11-04T07:36:18.793Z,11.91
2022-11-04T07:38:48.520Z,11.19
2022-11-04T07:41:18.012Z,11.71
2022-11-04T07:43:49.622Z,11.60
2022-11-04T07:46:17.380Z,11.04
2022-11-04T07:48:45.060Z,11.42
2022-11-04T07:51:16.265Z,11.94
2022-11-04T07:53:44.473Z,11.74
2022-11-04T07:56:14.411Z,11.98
2022-11-04T07:58:42.429Z,11.85
2022-11-04T08:01:12.202Z,11.85
2022-11-04T08:03:40.168Z,11.84
2022-11-04T08:06:10.317Z,11.73
2022-11-04T08:08:38.473Z,11.96
2022-11-04T08:11:11.433Z,12.14
2022-11-04T08:13:43.759Z,12.28
2022-11-04T08:16:14.266Z,12.01
2022-11-04T08:18:42.729Z,12.07
2022-11-04T08:21:11.030Z,12.92
2022-11-04T08:23:38.895Z,12.54
2022-11-04T08:26:09.254Z,12.62
2022-11-04T08:28:37.093Z,12.15
2022-11-04T08:31:08.208Z,12.27
2022-11-04T08:33:36.266Z,12.57
2022-11-04T08:36:06.261Z,11.53
2022-11-04T08:38:34.408Z,12.24
2022-11-04T08:41:03.971Z,12.15
2022-11-04T08:43:31.804Z,12.08
2022-11-04T08:45:59.447Z,12.86
2022-11-04T08:48:28.645Z,12.81
2022-11-04T08:50:59.504Z,12.75
2022-11-04T08:53:27.385Z,12.73
2022-11-04T08:55:55.518Z,12.02
2022-11-04T08:58:24.712Z,11.41
2022-11-04T09:00:52.993Z,12.00
2022-11-04T09:03:21.080Z,12.29
2022-11-04T09:05:50.144Z,12.85
2022-11-04T09:08:19.019Z,12.64
2022-11-04T09:10:48.267Z,12.86
2022-11-04T09:13:16.875Z,13.22
2022-11-04T09:15:44.944Z,13.55
2022-11-04T09:18:12.676Z,13.35
2022-11-04T09:20:42.139Z,13.00
2022-11-04T09:23:11.561Z,13.24
2022-11-04T09:25:39.433Z,13.52
2022-11-04T09:28:07.235Z,13.69
2022-11-04T09:30:35.043Z,13.70
2022-11-04T09:33:02.757Z,13.47
2022-11-04T09:35:30.455Z,13.61
2022-11-04T09:38:00.507Z,13.51
2022-11-04T09:40:30.127Z,13.78
2022-11-04T09:43:06.935Z,13.36
2022-11-04T09:45:35.641Z,13.29
2022-11-04T09:48:06.102Z,13.65
2022-11-04T09:50:46.711Z,13.96
2022-11-04T09:53:18.692Z,13.78
2022-11-04T09:55:52.850Z,13.99
2022-11-04T09:58:20.571Z,14.69
2022-11-04T10:00:52.796Z,13.60
2022-11-04T10:03:29.076Z,14.04
2022-11-04T10:06:09.061Z,14.67
2022-11-04T10:08:59.301Z,14.39
2022-11-04T10:11:34.536Z,14.97
2022-11-04T10:14:16.921Z,14.36
2022-11-04T10:16:53.411Z,14.72
2022-11-04T10:19:32.192Z,14.66
2022-11-04T10:22:04.986Z,14.55
2022-11-04T10:24:43.521Z,13.74
2022-11-04T10:27:16.276Z,13.55
2022-11-04T10:29:45.568Z,13.26
2022-11-04T10:32:21.916Z,13.42
2022-11-04T10:34:55.900Z,12.82
2022-11-04T10:37:25.525Z,13.44
2022-11-04T10:39:56.664Z,13.61
2022-11-04T10:42:25.745Z,13.96
2022-11-04T10:44:54.195Z,14.55
2022-11-04T10:47:33.476Z,15.15
2022-11-04T10:52:57.235Z,14.10
2022-11-04T10:55:31.945Z,13.95
2022-11-04T10:58:00.990Z,13.38
2022-11-04T11:00:36.952Z,13.71
2022-11-04T11:03:05.283Z,13.88
2022-11-04T11:05:32.927Z,13.50
2022-11-04T11:08:00.624Z,13.73
2022-11-04T11:10:29.799Z,13.43
2022-11-04T11:12:59.171Z,13.56
2022-11-04T11:15:35.051Z,13.83
2022-11-04T11:18:15.151Z,13.36
2022-11-04T11:20:44.047Z,13.02
2022-11-04T11:23:48.372Z,13.66
2022-11-04T11:26:18.359Z,13.67
2022-11-04T11:28:55.767Z,12.99
2022-11-04T11:31:36.336Z,13.08
2022-11-04T11:34:06.109Z,14.00
2022-11-04T11:36:34.433Z,14.24
2022-11-04T11:39:05.769Z,14.21
2022-11-04T11:41:38.406Z,13.96
2022-11-04T11:44:19.954Z,13.85
2022-11-04T11:46:55.463Z,14.07
2022-11-04T11:49:29.035Z,14.09
2022-11-04T11:51:57.724Z,14.72
2022-11-04T11:54:33.306Z,14.98
2022-11-04T11:57:24.103Z,13.49
2022-11-04T12:02:51.734Z,13.46
2022-11-04T12:11:24.637Z,13.77
2022-11-04T12:13:54.553Z,13.68
2022-11-04T12:16:31.010Z,14.59
2022-11-04T12:19:26.186Z,13.86
2022-11-04T12:22:00.448Z,13.62
2022-11-04T12:24:35.756Z,13.29
2022-11-04T12:27:12.931Z,13.13
2022-11-04T12:29:52.417Z,13.89
2022-11-04T12:32:28.400Z,13.20
2022-11-04T12:35:08.892Z,13.69
2022-11-04T12:37:42.901Z,13.56
2022-11-04T12:40:14.119Z,13.79
2022-11-04T12:42:51.894Z,14.11
2022-11-04T12:45:26.017Z,14.32
2022-11-04T12:47:57.236Z,14.47
2022-11-04T12:50:43.936Z,14.30
2022-11-04T12:53:31.601Z,12.98
2022-11-04T12:56:04.921Z,13.38
2022-11-04T12:58:43.582Z,13.24
2022-11-04T13:01:15.950Z,13.23
2022-11-04T13:03:51.259Z,12.98
2022-11-04T13:06:23.156Z,13.17
2022-11-04T13:08:51.888Z,13.77
2022-11-04T13:11:24.691Z,14.34
2022-11-04T13:14:02.203Z,14.62
2022-11-04T13:16:30.103Z,14.30
2022-11-04T13:18:58.149Z,13.77
2022-11-04T13:21:29.788Z,13.77
2022-11-04T13:24:02.135Z,13.08
2022-11-04T13:26:29.820Z,13.48
2022-11-04T13:29:05.848Z,13.51
2022-11-04T13:31:42.935Z,13.69
2022-11-04T13:34:20.421Z,13.21
2022-11-04T13:36:58.088Z,13.70
2022-11-04T13:39:29.578Z,13.12
2022-11-04T13:42:44.631Z,13.03
2022-11-04T13:45:14.072Z,13.46
2022-11-04T13:47:47.292Z,13.60
2022-11-04T13:50:29.721Z,13.17
2022-11-04T13:52:58.844Z,13.76
2022-11-04T13:55:26.642Z,13.68
2022-11-04T13:57:56.076Z,13.84
2022-11-04T14:00:25.854Z,13.95
2022-11-04T14:02:54.206Z,13.97
2022-11-04T14:05:47.068Z,14.31
2022-11-04T14:08:17.244Z,14.40
2022-11-04T14:10:49.350Z,14.10
2022-11-04T14:13:47.871Z,13.42
2022-11-04T14:16:40.379Z,13.00
2022-11-04T14:20:02.356Z,12.47
2022-11-04T14:22:35.738Z,12.25
2022-11-04T14:25:20.737Z,12.19
2022-11-04T14:27:49.389Z,12.22
2022-11-04T14:30:38.744Z,12.38
2022-11-04T14:33:09.749Z,12.41
2022-11-04T14:35:37.704Z,12.26
2022-11-04T14:38:23.836Z,12.10
2022-11-04T14:40:53.879Z,12.23
2022-11-04T14:43:29.700Z,12.44
2022-11-04T14:45:57.172Z,12.64
2022-11-04T14:48:24.672Z,12.30
2022-11-04T14:50:53.799Z,12.82
2022-11-04T14:53:23.423Z,12.99
2022-11-04T14:56:03.274Z,12.89
2022-11-04T14:58:30.834Z,13.03
2022-11-04T15:00:59.260Z,12.79
2022-11-04T15:04:09.370Z,12.27
2022-11-04T15:06:15.260Z,12.18
2022-11-04T15:08:44.634Z,12.33
2022-11-04T15:11:17.409Z,12.00
2022-11-04T15:13:46.205Z,12.22
2022-11-04T15:16:15.420Z,12.41
2022-11-04T15:18:42.864Z,12.38
2022-11-04T15:21:11.153Z,12.27
2022-11-04T15:23:39.092Z,12.10
2022-11-04T15:26:06.749Z,11.89
2022-11-04T15:28:36.168Z,12.12
2022-11-04T15:31:05.647Z,11.89
2022-11-04T15:33:33.884Z,11.99
2022-11-04T15:36:01.371Z,11.89
2022-11-04T15:38:29.237Z,11.95
2022-11-04T15:41:17.088Z,11.92
2022-11-04T15:43:44.928Z,11.19
2022-11-04T15:46:17.239Z,11.27
2022-11-04T15:48:44.700Z,11.55
2022-11-04T15:51:13.756Z,11.61
2022-11-04T15:53:48.144Z,11.39
2022-11-04T15:56:16.022Z,11.31
2022-11-04T15:58:43.704Z,10.91
2022-11-04T16:01:12.694Z,11.03
2022-11-04T16:03:40.205Z,11.21
2022-11-04T16:06:08.182Z,11.29
2022-11-04T16:08:35.816Z,11.38
2022-11-04T16:11:09.635Z,11.31
2022-11-04T16:13:37.149Z,11.31
2022-11-04T16:16:09.632Z,11.26
2022-11-04T16:18:39.076Z,11.26
2022-11-04T16:21:07.132Z,11.12
2022-11-04T16:23:34.612Z,10.59
2022-11-04T16:26:04.335Z,10.50
2022-11-04T16:28:31.816Z,10.49
2022-11-04T16:30:59.763Z,10.51
2022-11-04T16:33:27.283Z,10.68
2022-11-04T16:35:56.094Z,10.95
2022-11-04T16:38:23.675Z,10.69
2022-11-04T16:40:51.178Z,10.53
2022-11-04T16:43:19.449Z,10.73
2022-11-04T16:45:53.274Z,10.76
2022-11-04T16:48:21.923Z,11.01
2022-11-04T16:50:49.553Z,11.12
2022-11-04T16:53:18.407Z,11.21
2022-11-04T16:55:46.135Z,10.96
2022-11-04T16:58:14.318Z,11.06
2022-11-04T17:00:41.800Z,11.13
2022-11-04T17:03:13.518Z,10.84
2022-11-04T17:05:41.004Z,10.55
2022-11-04T17:08:09.698Z,10.26
2022-11-04T17:10:38.552Z,10.65
2022-11-04T17:13:05.999Z,10.70
2022-11-04T17:15:33.501Z,10.66
2022-11-04T17:18:00.954Z,10.75
2022-11-04T17:20:29.889Z,10.77
2022-11-04T17:22:57.345Z,10.79
2022-11-04T17:25:27.775Z,11.01
2022-11-04T17:27:56.610Z,11.09
2022-11-04T17:30:24.671Z,10.91
2022-11-04T17:32:52.310Z,10.87
2022-11-04T17:35:19.814Z,10.94
2022-11-04T17:37:47.543Z,11.00
2022-11-04T17:40:16.379Z,11.16
2022-11-04T17:43:02.611Z,11.27
2022-11-04T17:45:33.554Z,11.32
2022-11-04T17:48:03.444Z,11.36
2022-11-04T17:50:30.967Z,11.38
2022-11-04T17:52:58.480Z,11.40
2022-11-04T17:55:27.654Z,11.44
2022-11-04T17:57:55.569Z,11.48
2022-11-04T18:00:25.866Z,11.40
2022-11-04T18:02:54.867Z,11.32
2022-11-04T18:05:22.399Z,11.42
2022-11-04T18:07:49.879Z,11.44
2022-11-04T18:10:17.440Z,11.31
2022-11-04T18:12:45.134Z,11.40
2022-11-04T18:15:13.782Z,11.48
2022-11-04T18:17:41.660Z,11.44
2022-11-04T18:20:14.037Z,11.39
2022-11-04T18:22:41.926Z,11.21
2022-11-04T18:25:09.975Z,11.01
2022-11-04T18:27:37.483Z,10.54
2022-11-04T18:30:05.333Z,10.59
2022-11-04T18:32:32.803Z,10.90
2022-11-04T18:35:00.289Z,11.01
2022-11-04T18:37:29.190Z,11.04
2022-11-04T18:39:56.691Z,11.11
2022-11-04T18:42:24.228Z,11.07
2022-11-04T18:44:51.719Z,11.14
2022-11-04T18:47:20.200Z,11.20
2022-11-04T18:49:47.846Z,11.11
2022-11-04T18:52:15.340Z,10.69
2022-11-04T18:54:44.704Z,10.72
2022-11-04T18:57:12.218Z,10.37
2022-11-04T18:59:39.679Z,10.18
2022-11-04T19:02:07.880Z,10.50
2022-11-04T19:04:35.536Z,10.79
2022-11-04T19:07:04.376Z,10.99
2022-11-04T19:09:47.926Z,11.02
2022-11-04T19:12:34.431Z,11.06
2022-11-04T19:15:03.902Z,10.43
2022-11-04T19:17:31.359Z,10.53
2022-11-04T19:19:59.157Z,10.64
2022-11-04T19:22:26.625Z,10.76
2022-11-04T19:24:54.127Z,10.46
2022-11-04T19:27:24.826Z,10.65
2022-11-04T19:29:52.314Z,10.69
2022-11-04T19:32:19.762Z,10.65
2022-11-04T19:34:47.229Z,10.86
2022-11-04T19:37:14.699Z,10.65
2022-11-04T19:39:42.738Z,10.68
2022-11-04T19:42:28.352Z,10.44
2022-11-04T19:44:57.167Z,10.75
2022-11-04T19:47:24.650Z,10.78
2022-11-04T19:49:52.110Z,10.95
2022-11-04T19:52:20.362Z,10.79
2022-11-04T19:54:47.859Z,10.45
2022-11-04T19:57:15.491Z,10.53
2022-11-04T19:59:42.965Z,10.03
2022-11-04T20:02:12.158Z,10.23
2022-11-04T20:04:39.892Z,10.15
2022-11-04T20:07:07.494Z,10.03
2022-11-04T20:09:34.949Z,10.18
2022-11-04T20:12:19.983Z,10.02
2022-11-04T20:14:47.420Z,10.20
2022-11-04T20:17:16.237Z,10.09
2022-11-04T20:19:43.703Z,10.15
2022-11-04T20:22:11.208Z,9.93
2022-11-04T20:24:38.656Z,9.87
2022-11-04T20:27:06.171Z,9.92
2022-11-04T20:29:33.650Z,10.04
2022-11-04T20:32:01.121Z,9.98
2022-11-04T20:34:32.966Z,9.94
2022-11-04T20:37:01.507Z,9.96
2022-11-04T20:39:29.453Z,9.82
2022-11-04T20:41:56.924Z,9.78
2022-11-04T20:44:24.792Z,9.73
2022-11-04T20:46:52.244Z,9.67
2022-11-04T20:49:19.750Z,9.56
2022-11-04T20:51:54.737Z,9.54
2022-11-04T20:54:22.736Z,9.69
2022-11-04T20:56:50.375Z,9.74
2022-11-04T20:59:18.265Z,9.79
2022-11-04T21:01:46.601Z,9.79
2022-11-04T21:04:15.360Z,9.77
2022-11-04T21:06:42.911Z,9.71
2022-11-04T21:09:12.443Z,9.61
2022-11-04T21:11:39.960Z,9.34
2022-11-04T21:14:07.704Z,9.43
2022-11-04T21:16:35.535Z,9.34
2022-11-04T21:19:03.139Z,9.28
2022-11-04T21:21:30.749Z,9.29
2022-11-04T21:23:59.092Z,9.00
2022-11-04T21:26:28.585Z,8.90
2022-11-04T21:28:56.343Z,9.04
2022-11-04T21:31:24.142Z,8.96
2022-11-04T21:33:51.844Z,9.03
2022-11-04T21:36:19.479Z,8.89
2022-11-04T21:38:47.077Z,9.06
2022-11-04T21:41:15.211Z,9.09
2022-11-04T21:43:44.047Z,9.34
2022-11-04T21:46:11.945Z,9.36
2022-11-04T21:48:39.630Z,9.26
2022-11-04T21:51:07.928Z,9.40
2022-11-04T21:53:35.622Z,9.40
2022-11-04T21:56:03.875Z,9.32
2022-11-04T21:58:31.577Z,9.42
2022-11-04T22:01:00.582Z,9.52
2022-11-04T22:03:28.430Z,9.45
2022-11-04T22:05:59.463Z,9.45
2022-11-04T22:08:27.271Z,9.33
2022-11-04T22:10:54.846Z,9.27
2022-11-04T22:13:22.342Z,9.06
2022-11-04T22:16:02.939Z,9.02
2022-11-04T22:18:32.714Z,8.78
2022-11-04T22:21:02.265Z,8.92
2022-11-04T22:23:29.742Z,8.73
2022-11-04T22:26:00.111Z,8.81
2022-11-04T22:28:27.819Z,8.88
2022-11-04T22:30:55.684Z,9.14
2022-11-04T22:33:27.422Z,9.19
2022-11-04T22:35:59.492Z,9.03
2022-11-04T22:38:27.265Z,9.51
2022-11-04T22:40:55.929Z,9.83
2022-11-04T22:43:24.796Z,9.39
2022-11-04T22:45:52.834Z,9.53
2022-11-04T22:48:20.709Z,9.56
2022-11-04T22:50:54.961Z,9.21
2022-11-04T22:53:24.384Z,9.27
2022-11-04T22:55:52.212Z,9.21
2022-11-04T22:58:20.042Z,9.66
2022-11-04T23:00:55.315Z,9.58
2022-11-04T23:03:23.152Z,9.82
2022-11-04T23:05:54.916Z,9.85
2022-11-04T23:08:24.255Z,9.94
2022-11-04T23:11:09.672Z,9.96
2022-11-04T23:13:54.108Z,9.88
2022-11-04T23:16:40.012Z,9.62
2022-11-04T23:19:07.690Z,9.56
2022-11-04T23:21:53.128Z,9.04
2022-11-04T23:24:39.620Z,9.46
2022-11-04T23:27:07.748Z,9.77
2022-11-04T23:29:52.995Z,9.90
2022-11-04T23:32:24.534Z,9.52
2022-11-04T23:35:12.472Z,9.69
2022-11-04T23:37:40.139Z,9.45
2022-11-04T23:40:10.576Z,9.30
2022-11-04T23:42:38.227Z,8.83
2022-11-04T23:45:24.091Z,9.44
2022-11-04T23:48:14.104Z,9.43
2022-11-04T23:50:59.497Z,9.47
2022-11-04T23:53:44.936Z,9.04
2022-11-04T23:56:27.815Z,8.89
2022-11-04T23:59:13.139Z,8.93
